sensor_id;sensor_type;location;lat;lon;timestamp;temperature;humidity
19728;DHT22;10015;52.530;13.390;2023-07-29T00:00:43;21.00;99.90
19728;DHT22;10015;52.530;13.390;2023-07-29T00:03:09;20.90;99.90
19728;DHT22;10015;52.530;13.390;2023-07-29T00:05:37;21.00;99.90
19728;DHT22;10015;52.530;13.390;2023-07-29T00:08:03;21.00;99.90
19728;DHT22;10015;52.530;13.390;2023-07-29T00:10:30;21.00;99.90
19728;DHT22;10015;52.530;13.390;2023-07-29T00:12:56;21.00;99.90
19728;DHT22;10015;52.530;13.390;2023-07-29T00:15:22;20.90;99.90
19728;DHT22;10015;52.530;13.390;2023-07-29T00:17:48;20.90;99.90
19728;DHT22;10015;52.530;13.390;2023-07-29T00:20:14;21.00;99.90
19728;DHT22;10015;52.530;13.390;2023-07-29T00:22:41;20.90;99.90
19728;DHT22;10015;52.530;13.390;2023-07-29T00:25:07;20.80;99.90
19728;DHT22;10015;52.530;13.390;2023-07-29T00:27:33;20.80;99.90
19728;DHT22;10015;52.530;13.390;2023-07-29T00:29:59;20.80;99.90
19728;DHT22;10015;52.530;13.390;2023-07-29T00:32:27;20.80;99.90
19728;DHT22;10015;52.530;13.390;2023-07-29T00:34:53;20.80;99.90
19728;DHT22;10015;52.530;13.390;2023-07-29T00:37:19;20.80;99.90
19728;DHT22;10015;52.530;13.390;2023-07-29T00:39:45;20.90;99.90
19728;DHT22;10015;52.530;13.390;2023-07-29T00:42:11;20.90;99.90
19728;DHT22;10015;52.530;13.390;2023-07-29T00:44:37;20.80;99.90
19728;DHT22;10015;52.530;13.390;2023-07-29T00:47:05;20.80;99.90
19728;DHT22;10015;52.530;13.390;2023-07-29T00:49:32;20.80;99.90
19728;DHT22;10015;52.530;13.390;2023-07-29T00:51:58;20.80;99.90
19728;DHT22;10015;52.530;13.390;2023-07-29T00:54:25;20.60;99.90
19728;DHT22;10015;52.530;13.390;2023-07-29T00:56:51;20.50;99.90
19728;DHT22;10015;52.530;13.390;2023-07-29T00:59:17;20.30;99.90
19728;DHT22;10015;52.530;13.390;2023-07-29T01:01:43;20.30;99.90
19728;DHT22;10015;52.530;13.390;2023-07-29T01:04:09;20.30;99.90
19728;DHT22;10015;52.530;13.390;2023-07-29T01:07:01;20.30;99.90
19728;DHT22;10015;52.530;13.390;2023-07-29T01:12:27;20.40;99.90
19728;DHT22;10015;52.530;13.390;2023-07-29T01:17:43;20.30;99.90
19728;DHT22;10015;52.530;13.390;2023-07-29T01:20:15;20.30;99.90
19728;DHT22;10015;52.530;13.390;2023-07-29T01:22:42;20.30;99.90
19728;DHT22;10015;52.530;13.390;2023-07-29T01:25:08;20.30;99.90
19728;DHT22;10015;52.530;13.390;2023-07-29T01:27:34;20.30;99.90
19728;DHT22;10015;52.530;13.390;2023-07-29T01:30:00;20.30;99.90
19728;DHT22;10015;52.530;13.390;2023-07-29T01:32:53;20.30;99.90
19728;DHT22;10015;52.530;13.390;2023-07-29T01:35:36;20.30;99.90
19728;DHT22;10015;52.530;13.390;2023-07-29T01:38:10;20.30;99.90
19728;DHT22;10015;52.530;13.390;2023-07-29T01:40:40;20.40;99.90
19728;DHT22;10015;52.530;13.390;2023-07-29T01:43:06;20.40;99.90
19728;DHT22;10015;52.530;13.390;2023-07-29T01:45:35;20.40;99.90
19728;DHT22;10015;52.530;13.390;2023-07-29T01:48:07;20.30;99.90
19728;DHT22;10015;52.530;13.390;2023-07-29T01:50:36;20.40;99.90
19728;DHT22;10015;52.530;13.390;2023-07-29T01:53:02;20.40;99.90
19728;DHT22;10015;52.530;13.390;2023-07-29T01:55:29;20.40;99.90
19728;DHT22;10015;52.530;13.390;2023-07-29T01:57:55;20.40;99.90
19728;DHT22;10015;52.530;13.390;2023-07-29T02:00:22;20.30;99.90
19728;DHT22;10015;52.530;13.390;2023-07-29T02:02:48;20.30;99.90
19728;DHT22;10015;52.530;13.390;2023-07-29T02:05:14;20.30;99.90
19728;DHT22;10015;52.530;13.390;2023-07-29T02:07:40;20.30;99.90
19728;DHT22;10015;52.530;13.390;2023-07-29T02:10:06;20.30;99.90
19728;DHT22;10015;52.530;13.390;2023-07-29T02:12:33;20.20;99.90
19728;DHT22;10015;52.530;13.390;2023-07-29T02:15:00;20.20;99.90
19728;DHT22;10015;52.530;13.390;2023-07-29T02:17:26;20.20;99.90
19728;DHT22;10015;52.530;13.390;2023-07-29T02:19:52;20.00;99.90
19728;DHT22;10015;52.530;13.390;2023-07-29T02:22:18;20.00;99.90
19728;DHT22;10015;52.530;13.390;2023-07-29T02:24:45;19.90;99.90
19728;DHT22;10015;52.530;13.390;2023-07-29T02:27:11;19.80;99.90
19728;DHT22;10015;52.530;13.390;2023-07-29T02:29:37;19.80;99.90
19728;DHT22;10015;52.530;13.390;2023-07-29T02:32:03;19.80;99.90
19728;DHT22;10015;52.530;13.390;2023-07-29T02:34:29;19.80;99.90
19728;DHT22;10015;52.530;13.390;2023-07-29T02:36:57;19.80;99.90
19728;DHT22;10015;52.530;13.390;2023-07-29T02:39:23;19.80;99.90
19728;DHT22;10015;52.530;13.390;2023-07-29T02:41:49;19.90;99.90
19728;DHT22;10015;52.530;13.390;2023-07-29T02:44:15;19.90;99.90
19728;DHT22;10015;52.530;13.390;2023-07-29T02:46:42;19.90;99.90
19728;DHT22;10015;52.530;13.390;2023-07-29T02:49:08;20.00;99.90
19728;DHT22;10015;52.530;13.390;2023-07-29T02:51:34;19.90;99.90
19728;DHT22;10015;52.530;13.390;2023-07-29T02:54:00;19.90;99.90
19728;DHT22;10015;52.530;13.390;2023-07-29T02:56:26;19.90;99.90
19728;DHT22;10015;52.530;13.390;2023-07-29T02:58:51;19.90;99.90
19728;DHT22;10015;52.530;13.390;2023-07-29T03:01:17;19.80;99.90
19728;DHT22;10015;52.530;13.390;2023-07-29T03:03:44;19.80;99.90
19728;DHT22;10015;52.530;13.390;2023-07-29T03:06:13;19.70;99.90
19728;DHT22;10015;52.530;13.390;2023-07-29T03:08:39;19.80;99.90
19728;DHT22;10015;52.530;13.390;2023-07-29T03:11:10;19.70;99.90
19728;DHT22;10015;52.530;13.390;2023-07-29T03:13:37;19.70;99.90
19728;DHT22;10015;52.530;13.390;2023-07-29T03:16:11;19.70;99.90
19728;DHT22;10015;52.530;13.390;2023-07-29T03:18:38;19.70;99.90
19728;DHT22;10015;52.530;13.390;2023-07-29T03:21:05;19.70;99.90
19728;DHT22;10015;52.530;13.390;2023-07-29T03:23:32;19.70;99.90
19728;DHT22;10015;52.530;13.390;2023-07-29T03:25:59;19.70;99.90
19728;DHT22;10015;52.530;13.390;2023-07-29T03:28:30;19.70;99.90
19728;DHT22;10015;52.530;13.390;2023-07-29T03:30:56;19.60;99.90
19728;DHT22;10015;52.530;13.390;2023-07-29T03:33:22;19.50;99.90
19728;DHT22;10015;52.530;13.390;2023-07-29T03:35:48;19.40;99.90
19728;DHT22;10015;52.530;13.390;2023-07-29T03:38:15;19.50;99.90
19728;DHT22;10015;52.530;13.390;2023-07-29T03:40:42;19.40;99.90
19728;DHT22;10015;52.530;13.390;2023-07-29T03:43:08;19.40;99.90
19728;DHT22;10015;52.530;13.390;2023-07-29T03:45:35;19.30;99.90
19728;DHT22;10015;52.530;13.390;2023-07-29T03:48:01;19.20;99.90
19728;DHT22;10015;52.530;13.390;2023-07-29T03:50:28;19.20;99.90
19728;DHT22;10015;52.530;13.390;2023-07-29T03:52:55;19.20;99.90
19728;DHT22;10015;52.530;13.390;2023-07-29T03:55:21;19.20;99.90
19728;DHT22;10015;52.530;13.390;2023-07-29T03:57:47;19.10;99.90
19728;DHT22;10015;52.530;13.390;2023-07-29T04:00:13;19.20;99.90
19728;DHT22;10015;52.530;13.390;2023-07-29T04:02:42;19.20;99.90
19728;DHT22;10015;52.530;13.390;2023-07-29T04:05:10;19.10;99.90
19728;DHT22;10015;52.530;13.390;2023-07-29T04:07:36;19.00;99.90
19728;DHT22;10015;52.530;13.390;2023-07-29T04:10:03;19.00;99.90
19728;DHT22;10015;52.530;13.390;2023-07-29T04:12:29;19.10;99.90
19728;DHT22;10015;52.530;13.390;2023-07-29T04:14:55;19.20;99.90
19728;DHT22;10015;52.530;13.390;2023-07-29T04:17:21;19.10;99.90
19728;DHT22;10015;52.530;13.390;2023-07-29T04:19:47;19.10;99.90
19728;DHT22;10015;52.530;13.390;2023-07-29T04:22:13;19.10;99.90
19728;DHT22;10015;52.530;13.390;2023-07-29T04:24:39;19.20;99.90
19728;DHT22;10015;52.530;13.390;2023-07-29T04:27:05;19.20;99.90
19728;DHT22;10015;52.530;13.390;2023-07-29T04:29:31;19.20;99.90
19728;DHT22;10015;52.530;13.390;2023-07-29T04:31:57;19.20;99.90
19728;DHT22;10015;52.530;13.390;2023-07-29T04:34:23;19.30;99.90
19728;DHT22;10015;52.530;13.390;2023-07-29T04:36:49;19.30;99.90
19728;DHT22;10015;52.530;13.390;2023-07-29T04:39:15;19.50;99.90
19728;DHT22;10015;52.530;13.390;2023-07-29T04:41:42;19.50;99.90
19728;DHT22;10015;52.530;13.390;2023-07-29T04:44:08;19.70;99.90
19728;DHT22;10015;52.530;13.390;2023-07-29T04:46:35;19.70;99.90
19728;DHT22;10015;52.530;13.390;2023-07-29T04:49:01;19.80;99.90
19728;DHT22;10015;52.530;13.390;2023-07-29T04:51:28;19.90;99.90
19728;DHT22;10015;52.530;13.390;2023-07-29T04:53:54;20.00;99.90
19728;DHT22;10015;52.530;13.390;2023-07-29T04:56:20;20.20;99.90
19728;DHT22;10015;52.530;13.390;2023-07-29T04:58:46;20.30;99.90
19728;DHT22;10015;52.530;13.390;2023-07-29T05:01:12;20.30;99.90
19728;DHT22;10015;52.530;13.390;2023-07-29T05:03:38;20.40;99.90
19728;DHT22;10015;52.530;13.390;2023-07-29T05:06:05;20.50;99.90
19728;DHT22;10015;52.530;13.390;2023-07-29T05:08:31;20.60;99.90
19728;DHT22;10015;52.530;13.390;2023-07-29T05:10:58;20.70;99.90
19728;DHT22;10015;52.530;13.390;2023-07-29T05:13:24;20.80;99.90
19728;DHT22;10015;52.530;13.390;2023-07-29T05:15:50;21.00;99.90
19728;DHT22;10015;52.530;13.390;2023-07-29T05:18:17;21.20;99.90
19728;DHT22;10015;52.530;13.390;2023-07-29T05:20:43;21.20;99.90
19728;DHT22;10015;52.530;13.390;2023-07-29T05:23:09;21.40;99.90
19728;DHT22;10015;52.530;13.390;2023-07-29T05:25:35;21.40;99.90
19728;DHT22;10015;52.530;13.390;2023-07-29T05:28:01;21.50;99.90
19728;DHT22;10015;52.530;13.390;2023-07-29T05:30:28;21.60;99.90
19728;DHT22;10015;52.530;13.390;2023-07-29T05:32:57;21.80;99.90
19728;DHT22;10015;52.530;13.390;2023-07-29T05:35:24;21.90;99.90
19728;DHT22;10015;52.530;13.390;2023-07-29T05:37:50;22.10;99.90
19728;DHT22;10015;52.530;13.390;2023-07-29T05:40:16;22.10;99.90
19728;DHT22;10015;52.530;13.390;2023-07-29T05:42:43;22.10;99.90
19728;DHT22;10015;52.530;13.390;2023-07-29T05:45:10;22.10;99.90
19728;DHT22;10015;52.530;13.390;2023-07-29T05:47:37;21.90;99.90
19728;DHT22;10015;52.530;13.390;2023-07-29T05:50:04;21.90;99.90
19728;DHT22;10015;52.530;13.390;2023-07-29T05:52:31;21.80;99.90
19728;DHT22;10015;52.530;13.390;2023-07-29T05:54:57;21.80;99.90
19728;DHT22;10015;52.530;13.390;2023-07-29T05:57:23;21.90;99.90
19728;DHT22;10015;52.530;13.390;2023-07-29T05:59:49;21.90;99.90
19728;DHT22;10015;52.530;13.390;2023-07-29T06:02:15;22.10;99.90
19728;DHT22;10015;52.530;13.390;2023-07-29T06:04:41;22.30;99.90
19728;DHT22;10015;52.530;13.390;2023-07-29T06:07:07;22.50;99.90
19728;DHT22;10015;52.530;13.390;2023-07-29T06:09:33;22.70;99.90
19728;DHT22;10015;52.530;13.390;2023-07-29T06:11:59;22.80;99.90
19728;DHT22;10015;52.530;13.390;2023-07-29T06:14:25;22.80;99.90
19728;DHT22;10015;52.530;13.390;2023-07-29T06:16:51;22.90;99.90
19728;DHT22;10015;52.530;13.390;2023-07-29T06:19:18;22.80;99.90
19728;DHT22;10015;52.530;13.390;2023-07-29T06:21:44;22.40;99.90
19728;DHT22;10015;52.530;13.390;2023-07-29T06:24:10;22.50;99.90
19728;DHT22;10015;52.530;13.390;2023-07-29T06:26:36;22.80;99.90
19728;DHT22;10015;52.530;13.390;2023-07-29T06:29:02;23.00;99.90
19728;DHT22;10015;52.530;13.390;2023-07-29T06:31:27;22.90;99.90
19728;DHT22;10015;52.530;13.390;2023-07-29T06:33:53;23.30;99.90
19728;DHT22;10015;52.530;13.390;2023-07-29T06:36:20;23.70;99.90
19728;DHT22;10015;52.530;13.390;2023-07-29T06:38:46;24.00;99.90
19728;DHT22;10015;52.530;13.390;2023-07-29T06:41:12;24.40;99.90
19728;DHT22;10015;52.530;13.390;2023-07-29T06:43:38;24.70;99.90
19728;DHT22;10015;52.530;13.390;2023-07-29T06:46:03;24.90;99.90
19728;DHT22;10015;52.530;13.390;2023-07-29T06:48:29;25.10;99.90
19728;DHT22;10015;52.530;13.390;2023-07-29T06:50:55;25.30;99.90
19728;DHT22;10015;52.530;13.390;2023-07-29T06:53:26;25.40;99.90
19728;DHT22;10015;52.530;13.390;2023-07-29T06:55:52;25.50;99.90
19728;DHT22;10015;52.530;13.390;2023-07-29T06:58:19;25.70;99.90
19728;DHT22;10015;52.530;13.390;2023-07-29T07:00:45;25.80;99.90
19728;DHT22;10015;52.530;13.390;2023-07-29T07:03:11;25.90;99.90
19728;DHT22;10015;52.530;13.390;2023-07-29T07:05:36;25.90;99.90
19728;DHT22;10015;52.530;13.390;2023-07-29T07:08:03;26.00;99.90
19728;DHT22;10015;52.530;13.390;2023-07-29T07:10:28;26.00;99.90
19728;DHT22;10015;52.530;13.390;2023-07-29T07:12:54;25.90;99.90
19728;DHT22;10015;52.530;13.390;2023-07-29T07:15:20;25.70;99.90
19728;DHT22;10015;52.530;13.390;2023-07-29T07:17:46;25.60;99.90
19728;DHT22;10015;52.530;13.390;2023-07-29T07:20:12;25.50;99.90
19728;DHT22;10015;52.530;13.390;2023-07-29T07:22:38;25.60;99.90
19728;DHT22;10015;52.530;13.390;2023-07-29T07:25:05;25.70;99.90
19728;DHT22;10015;52.530;13.390;2023-07-29T07:27:31;25.80;99.90
19728;DHT22;10015;52.530;13.390;2023-07-29T07:29:57;25.90;99.90
19728;DHT22;10015;52.530;13.390;2023-07-29T07:32:23;25.80;99.90
19728;DHT22;10015;52.530;13.390;2023-07-29T07:34:49;25.70;99.90
19728;DHT22;10015;52.530;13.390;2023-07-29T07:37:15;25.60;99.90
19728;DHT22;10015;52.530;13.390;2023-07-29T07:39:41;25.50;99.90
19728;DHT22;10015;52.530;13.390;2023-07-29T07:42:07;25.50;99.90
19728;DHT22;10015;52.530;13.390;2023-07-29T07:44:33;25.50;99.90
19728;DHT22;10015;52.530;13.390;2023-07-29T07:46:59;25.50;99.90
19728;DHT22;10015;52.530;13.390;2023-07-29T07:49:25;25.50;99.90
19728;DHT22;10015;52.530;13.390;2023-07-29T07:51:51;25.60;99.90
19728;DHT22;10015;52.530;13.390;2023-07-29T07:54:17;25.50;99.90
19728;DHT22;10015;52.530;13.390;2023-07-29T07:56:43;25.50;99.90
19728;DHT22;10015;52.530;13.390;2023-07-29T07:59:12;25.70;99.90
19728;DHT22;10015;52.530;13.390;2023-07-29T08:01:39;25.80;99.90
19728;DHT22;10015;52.530;13.390;2023-07-29T08:04:05;26.00;99.90
19728;DHT22;10015;52.530;13.390;2023-07-29T08:06:32;26.20;99.90
19728;DHT22;10015;52.530;13.390;2023-07-29T08:08:58;26.40;99.90
19728;DHT22;10015;52.530;13.390;2023-07-29T08:11:26;26.70;99.90
19728;DHT22;10015;52.530;13.390;2023-07-29T08:13:52;26.90;99.90
19728;DHT22;10015;52.530;13.390;2023-07-29T08:16:18;27.00;99.90
19728;DHT22;10015;52.530;13.390;2023-07-29T08:18:44;27.10;99.90
19728;DHT22;10015;52.530;13.390;2023-07-29T08:21:10;27.20;99.90
19728;DHT22;10015;52.530;13.390;2023-07-29T08:23:36;27.10;99.90
19728;DHT22;10015;52.530;13.390;2023-07-29T08:26:05;27.00;99.90
19728;DHT22;10015;52.530;13.390;2023-07-29T08:28:33;27.00;99.90
19728;DHT22;10015;52.530;13.390;2023-07-29T08:30:59;26.90;99.90
19728;DHT22;10015;52.530;13.390;2023-07-29T08:33:25;26.40;99.90
19728;DHT22;10015;52.530;13.390;2023-07-29T08:35:51;26.30;99.90
19728;DHT22;10015;52.530;13.390;2023-07-29T08:38:17;26.20;99.90
19728;DHT22;10015;52.530;13.390;2023-07-29T08:40:54;26.10;99.90
19728;DHT22;10015;52.530;13.390;2023-07-29T08:43:28;25.90;99.90
19728;DHT22;10015;52.530;13.390;2023-07-29T08:45:57;25.90;99.90
19728;DHT22;10015;52.530;13.390;2023-07-29T08:48:41;26.00;99.90
19728;DHT22;10015;52.530;13.390;2023-07-29T08:51:11;25.90;99.90
19728;DHT22;10015;52.530;13.390;2023-07-29T08:53:39;25.80;99.90
19728;DHT22;10015;52.530;13.390;2023-07-29T08:56:06;25.70;99.90
19728;DHT22;10015;52.530;13.390;2023-07-29T08:58:32;25.60;99.90
19728;DHT22;10015;52.530;13.390;2023-07-29T09:00:59;25.50;99.90
19728;DHT22;10015;52.530;13.390;2023-07-29T09:03:25;25.40;99.90
19728;DHT22;10015;52.530;13.390;2023-07-29T09:05:52;25.40;99.90
19728;DHT22;10015;52.530;13.390;2023-07-29T09:08:19;25.40;99.90
19728;DHT22;10015;52.530;13.390;2023-07-29T09:10:45;25.40;99.90
19728;DHT22;10015;52.530;13.390;2023-07-29T09:13:11;25.40;99.90
19728;DHT22;10015;52.530;13.390;2023-07-29T09:15:37;25.30;99.90
19728;DHT22;10015;52.530;13.390;2023-07-29T09:18:16;25.30;99.90
19728;DHT22;10015;52.530;13.390;2023-07-29T09:20:42;25.40;99.90
19728;DHT22;10015;52.530;13.390;2023-07-29T09:23:09;25.50;99.90
19728;DHT22;10015;52.530;13.390;2023-07-29T09:25:36;25.60;99.90
19728;DHT22;10015;52.530;13.390;2023-07-29T09:28:10;25.70;99.90
19728;DHT22;10015;52.530;13.390;2023-07-29T09:30:38;25.70;99.90
19728;DHT22;10015;52.530;13.390;2023-07-29T09:33:04;25.70;99.90
19728;DHT22;10015;52.530;13.390;2023-07-29T09:35:32;25.70;99.90
19728;DHT22;10015;52.530;13.390;2023-07-29T09:37:58;25.80;99.90
19728;DHT22;10015;52.530;13.390;2023-07-29T09:40:24;25.80;99.90
19728;DHT22;10015;52.530;13.390;2023-07-29T09:42:54;25.90;99.90
19728;DHT22;10015;52.530;13.390;2023-07-29T09:45:27;26.00;99.90
19728;DHT22;10015;52.530;13.390;2023-07-29T09:47:54;25.90;99.90
19728;DHT22;10015;52.530;13.390;2023-07-29T09:50:25;25.90;99.90
19728;DHT22;10015;52.530;13.390;2023-07-29T09:52:53;25.90;99.90
19728;DHT22;10015;52.530;13.390;2023-07-29T09:55:21;26.00;99.90
19728;DHT22;10015;52.530;13.390;2023-07-29T09:57:56;25.90;99.90
19728;DHT22;10015;52.530;13.390;2023-07-29T10:00:23;25.90;99.90
19728;DHT22;10015;52.530;13.390;2023-07-29T10:02:49;25.90;99.90
19728;DHT22;10015;52.530;13.390;2023-07-29T10:05:16;25.70;99.90
19728;DHT22;10015;52.530;13.390;2023-07-29T10:07:42;25.80;99.90
19728;DHT22;10015;52.530;13.390;2023-07-29T10:10:08;25.80;99.90
19728;DHT22;10015;52.530;13.390;2023-07-29T10:12:35;25.90;99.90
19728;DHT22;10015;52.530;13.390;2023-07-29T10:15:05;25.70;99.90
19728;DHT22;10015;52.530;13.390;2023-07-29T10:17:38;25.80;99.90
19728;DHT22;10015;52.530;13.390;2023-07-29T10:20:06;25.70;99.90
19728;DHT22;10015;52.530;13.390;2023-07-29T10:22:39;25.40;99.90
19728;DHT22;10015;52.530;13.390;2023-07-29T10:25:13;25.30;99.90
19728;DHT22;10015;52.530;13.390;2023-07-29T10:27:43;25.30;99.90
19728;DHT22;10015;52.530;13.390;2023-07-29T10:30:13;25.30;99.90
19728;DHT22;10015;52.530;13.390;2023-07-29T10:32:44;25.30;99.90
19728;DHT22;10015;52.530;13.390;2023-07-29T10:35:13;25.20;99.90
19728;DHT22;10015;52.530;13.390;2023-07-29T10:37:40;25.40;99.90
19728;DHT22;10015;52.530;13.390;2023-07-29T10:40:11;25.30;99.90
19728;DHT22;10015;52.530;13.390;2023-07-29T10:42:38;25.30;99.90
19728;DHT22;10015;52.530;13.390;2023-07-29T10:45:20;25.30;99.90
19728;DHT22;10015;52.530;13.390;2023-07-29T10:47:47;25.00;99.90
19728;DHT22;10015;52.530;13.390;2023-07-29T10:50:21;25.00;99.90
19728;DHT22;10015;52.530;13.390;2023-07-29T10:52:51;24.80;99.90
19728;DHT22;10015;52.530;13.390;2023-07-29T10:55:33;24.70;99.90
19728;DHT22;10015;52.530;13.390;2023-07-29T10:58:12;24.70;99.90
19728;DHT22;10015;52.530;13.390;2023-07-29T11:00:39;24.70;99.90
19728;DHT22;10015;52.530;13.390;2023-07-29T11:03:07;24.60;99.90
19728;DHT22;10015;52.530;13.390;2023-07-29T11:05:46;24.60;99.90
19728;DHT22;10015;52.530;13.390;2023-07-29T11:08:28;24.40;99.90
19728;DHT22;10015;52.530;13.390;2023-07-29T11:13:30;24.30;99.90
19728;DHT22;10015;52.530;13.390;2023-07-29T11:15:57;24.30;99.90
19728;DHT22;10015;52.530;13.390;2023-07-29T11:18:34;24.20;99.90
19728;DHT22;10015;52.530;13.390;2023-07-29T11:21:04;24.00;99.90
19728;DHT22;10015;52.530;13.390;2023-07-29T11:23:35;23.90;99.90
19728;DHT22;10015;52.530;13.390;2023-07-29T11:26:02;23.80;99.90
19728;DHT22;10015;52.530;13.390;2023-07-29T11:28:28;23.80;99.90
19728;DHT22;10015;52.530;13.390;2023-07-29T11:30:55;23.70;99.90
19728;DHT22;10015;52.530;13.390;2023-07-29T11:33:24;23.60;99.90
19728;DHT22;10015;52.530;13.390;2023-07-29T11:35:51;23.50;99.90
19728;DHT22;10015;52.530;13.390;2023-07-29T11:38:19;23.50;99.90
19728;DHT22;10015;52.530;13.390;2023-07-29T11:41:00;23.40;99.90
19728;DHT22;10015;52.530;13.390;2023-07-29T11:43:26;23.40;99.90
19728;DHT22;10015;52.530;13.390;2023-07-29T11:45:53;23.30;99.90
19728;DHT22;10015;52.530;13.390;2023-07-29T11:48:35;23.30;99.90
19728;DHT22;10015;52.530;13.390;2023-07-29T11:51:02;23.20;99.90
19728;DHT22;10015;52.530;13.390;2023-07-29T11:53:29;23.20;99.90
19728;DHT22;10015;52.530;13.390;2023-07-29T11:55:58;23.10;99.90
19728;DHT22;10015;52.530;13.390;2023-07-29T11:58:25;23.00;99.90
19728;DHT22;10015;52.530;13.390;2023-07-29T12:00:51;22.80;99.90
19728;DHT22;10015;52.530;13.390;2023-07-29T12:03:17;22.70;99.90
19728;DHT22;10015;52.530;13.390;2023-07-29T12:05:44;22.70;99.90
19728;DHT22;10015;52.530;13.390;2023-07-29T12:08:10;22.70;99.90
19728;DHT22;10015;52.530;13.390;2023-07-29T12:10:36;22.70;99.90
19728;DHT22;10015;52.530;13.390;2023-07-29T12:13:03;22.80;99.90
19728;DHT22;10015;52.530;13.390;2023-07-29T12:15:29;22.80;99.90
19728;DHT22;10015;52.530;13.390;2023-07-29T12:17:57;22.90;99.90
19728;DHT22;10015;52.530;13.390;2023-07-29T12:20:23;22.80;99.90
19728;DHT22;10015;52.530;13.390;2023-07-29T12:22:56;22.90;99.90
19728;DHT22;10015;52.530;13.390;2023-07-29T12:25:23;22.90;99.90
19728;DHT22;10015;52.530;13.390;2023-07-29T12:27:49;22.90;99.90
19728;DHT22;10015;52.530;13.390;2023-07-29T12:30:15;23.00;99.90
19728;DHT22;10015;52.530;13.390;2023-07-29T12:32:45;23.00;99.90
19728;DHT22;10015;52.530;13.390;2023-07-29T12:35:11;23.00;99.90
19728;DHT22;10015;52.530;13.390;2023-07-29T12:37:37;23.10;99.90
19728;DHT22;10015;52.530;13.390;2023-07-29T12:40:05;23.20;99.90
19728;DHT22;10015;52.530;13.390;2023-07-29T12:42:31;23.30;99.90
19728;DHT22;10015;52.530;13.390;2023-07-29T12:44:57;23.40;99.90
19728;DHT22;10015;52.530;13.390;2023-07-29T12:47:23;23.50;99.90
19728;DHT22;10015;52.530;13.390;2023-07-29T12:49:49;23.50;99.90
19728;DHT22;10015;52.530;13.390;2023-07-29T12:52:15;23.60;99.90
19728;DHT22;10015;52.530;13.390;2023-07-29T12:54:40;23.80;99.90
19728;DHT22;10015;52.530;13.390;2023-07-29T12:57:09;24.00;99.90
19728;DHT22;10015;52.530;13.390;2023-07-29T12:59:35;24.20;99.90
19728;DHT22;10015;52.530;13.390;2023-07-29T13:02:01;24.40;99.90
19728;DHT22;10015;52.530;13.390;2023-07-29T13:04:27;24.50;99.90
19728;DHT22;10015;52.530;13.390;2023-07-29T13:06:53;24.70;99.90
19728;DHT22;10015;52.530;13.390;2023-07-29T13:09:19;24.70;99.90
19728;DHT22;10015;52.530;13.390;2023-07-29T13:11:45;24.80;99.90
19728;DHT22;10015;52.530;13.390;2023-07-29T13:14:11;24.80;99.90
19728;DHT22;10015;52.530;13.390;2023-07-29T13:16:36;24.90;99.90
19728;DHT22;10015;52.530;13.390;2023-07-29T13:19:02;24.90;99.90
19728;DHT22;10015;52.530;13.390;2023-07-29T13:21:28;24.90;99.90
19728;DHT22;10015;52.530;13.390;2023-07-29T13:23:54;24.60;99.90
19728;DHT22;10015;52.530;13.390;2023-07-29T13:26:20;24.50;99.90
19728;DHT22;10015;52.530;13.390;2023-07-29T13:28:46;24.50;99.90
19728;DHT22;10015;52.530;13.390;2023-07-29T13:31:12;24.40;99.90
19728;DHT22;10015;52.530;13.390;2023-07-29T13:33:38;24.50;99.90
19728;DHT22;10015;52.530;13.390;2023-07-29T13:36:05;24.70;99.90
19728;DHT22;10015;52.530;13.390;2023-07-29T13:38:31;24.90;99.90
19728;DHT22;10015;52.530;13.390;2023-07-29T13:40:57;25.20;99.90
19728;DHT22;10015;52.530;13.390;2023-07-29T13:43:23;25.40;99.90
19728;DHT22;10015;52.530;13.390;2023-07-29T13:45:49;25.50;99.90
19728;DHT22;10015;52.530;13.390;2023-07-29T13:48:16;25.60;99.90
19728;DHT22;10015;52.530;13.390;2023-07-29T13:50:41;25.60;99.90
19728;DHT22;10015;52.530;13.390;2023-07-29T13:53:09;25.70;99.90
19728;DHT22;10015;52.530;13.390;2023-07-29T13:55:35;25.70;99.90
19728;DHT22;10015;52.530;13.390;2023-07-29T13:58:01;25.80;99.90
19728;DHT22;10015;52.530;13.390;2023-07-29T14:00:29;25.80;99.90
19728;DHT22;10015;52.530;13.390;2023-07-29T14:02:55;25.70;99.90
19728;DHT22;10015;52.530;13.390;2023-07-29T14:05:21;25.70;99.90
19728;DHT22;10015;52.530;13.390;2023-07-29T14:07:46;25.70;99.90
19728;DHT22;10015;52.530;13.390;2023-07-29T14:10:12;25.70;99.90
19728;DHT22;10015;52.530;13.390;2023-07-29T14:12:38;25.40;99.90
19728;DHT22;10015;52.530;13.390;2023-07-29T14:15:05;25.40;99.90
19728;DHT22;10015;52.530;13.390;2023-07-29T14:17:32;25.40;99.90
19728;DHT22;10015;52.530;13.390;2023-07-29T14:19:58;25.60;99.90
19728;DHT22;10015;52.530;13.390;2023-07-29T14:22:24;25.70;99.90
19728;DHT22;10015;52.530;13.390;2023-07-29T14:24:49;25.70;99.90
19728;DHT22;10015;52.530;13.390;2023-07-29T14:27:15;25.70;99.90
19728;DHT22;10015;52.530;13.390;2023-07-29T14:29:42;25.40;99.90
19728;DHT22;10015;52.530;13.390;2023-07-29T14:32:08;25.40;99.90
19728;DHT22;10015;52.530;13.390;2023-07-29T14:34:34;25.30;99.90
19728;DHT22;10015;52.530;13.390;2023-07-29T14:37:00;25.20;99.90
19728;DHT22;10015;52.530;13.390;2023-07-29T14:39:26;25.30;99.90
19728;DHT22;10015;52.530;13.390;2023-07-29T14:41:52;25.40;99.90
19728;DHT22;10015;52.530;13.390;2023-07-29T14:44:18;25.60;99.90
19728;DHT22;10015;52.530;13.390;2023-07-29T14:46:44;25.60;99.90
19728;DHT22;10015;52.530;13.390;2023-07-29T14:49:09;25.70;99.90
19728;DHT22;10015;52.530;13.390;2023-07-29T14:51:36;25.70;99.90
19728;DHT22;10015;52.530;13.390;2023-07-29T14:54:01;25.70;99.90
19728;DHT22;10015;52.530;13.390;2023-07-29T14:56:27;25.60;99.90
19728;DHT22;10015;52.530;13.390;2023-07-29T14:58:53;25.50;99.90
19728;DHT22;10015;52.530;13.390;2023-07-29T15:01:19;25.40;99.90
19728;DHT22;10015;52.530;13.390;2023-07-29T15:03:45;25.20;99.90
19728;DHT22;10015;52.530;13.390;2023-07-29T15:06:11;25.10;99.90
19728;DHT22;10015;52.530;13.390;2023-07-29T15:08:37;24.90;99.90
19728;DHT22;10015;52.530;13.390;2023-07-29T15:11:02;24.80;99.90
19728;DHT22;10015;52.530;13.390;2023-07-29T15:13:28;24.80;99.90
19728;DHT22;10015;52.530;13.390;2023-07-29T15:15:54;24.80;99.90
19728;DHT22;10015;52.530;13.390;2023-07-29T15:18:20;24.90;99.90
19728;DHT22;10015;52.530;13.390;2023-07-29T15:20:46;24.80;99.90
19728;DHT22;10015;52.530;13.390;2023-07-29T15:23:12;24.50;99.90